sensor_id;sensor_type;location;lat;lon;timestamp;pressure;altitude;pressure_sealevel;temperature;humidity
41467;BME280;27205;53.690;19.948;2022-11-20T00:04:27;99616.20;;;-1.30;76.61
41467;BME280;27205;53.690;19.948;2022-11-20T00:09:31;99613.57;;;-1.30;76.60
41467;BME280;27205;53.690;19.948;2022-11-20T00:14:34;99612.83;;;-1.34;76.57
41467;BME280;27205;53.690;19.948;2022-11-20T00:19:38;99610.58;;;-1.42;76.84
41467;BME280;27205;53.690;19.948;2022-11-20T00:24:41;99614.48;;;-1.47;76.62
41467;BME280;27205;53.690;19.948;2022-11-20T00:29:45;99613.48;;;-1.48;76.68
41467;BME280;27205;53.690;19.948;2022-11-20T00:34:48;99604.25;;;-1.50;76.61
41467;BME280;27205;53.690;19.948;2022-11-20T00:39:52;99601.94;;;-1.51;76.83
41467;BME280;27205;53.690;19.948;2022-11-20T00:44:55;99609.02;;;-1.49;76.77
41467;BME280;27205;53.690;19.948;2022-11-20T00:49:59;99610.63;;;-1.49;76.76
41467;BME280;27205;53.690;19.948;2022-11-20T00:55:03;99607.63;;;-1.48;76.45
41467;BME280;27205;53.690;19.948;2022-11-20T01:00:07;99604.29;;;-1.46;76.63
41467;BME280;27205;53.690;19.948;2022-11-20T01:05:11;99605.59;;;-1.44;76.47
41467;BME280;27205;53.690;19.948;2022-11-20T01:10:14;99603.58;;;-1.43;76.62
41467;BME280;27205;53.690;19.948;2022-11-20T01:15:18;99611.51;;;-1.41;76.58
41467;BME280;27205;53.690;19.948;2022-11-20T01:20:21;99609.48;;;-1.39;76.91
41467;BME280;27205;53.690;19.948;2022-11-20T01:25:25;99609.41;;;-1.39;76.57
41467;BME280;27205;53.690;19.948;2022-11-20T01:30:28;99604.27;;;-1.35;76.86
41467;BME280;27205;53.690;19.948;2022-11-20T01:35:32;99600.09;;;-1.32;76.92
41467;BME280;27205;53.690;19.948;2022-11-20T01:40:35;99601.73;;;-1.27;76.83
41467;BME280;27205;53.690;19.948;2022-11-20T01:45:59;99600.27;;;-1.26;76.73
41467;BME280;27205;53.690;19.948;2022-11-20T01:51:04;99601.14;;;-1.20;76.68
41467;BME280;27205;53.690;19.948;2022-11-20T01:56:12;99600.34;;;-1.17;76.72
41467;BME280;27205;53.690;19.948;2022-11-20T02:01:17;99599.04;;;-1.18;76.91
41467;BME280;27205;53.690;19.948;2022-11-20T02:06:34;99595.94;;;-1.16;76.76
41467;BME280;27205;53.690;19.948;2022-11-20T02:11:39;99598.92;;;-1.15;76.91
41467;BME280;27205;53.690;19.948;2022-11-20T02:16:47;99589.49;;;-1.14;76.52
41467;BME280;27205;53.690;19.948;2022-11-20T02:22:02;99581.00;;;-1.12;76.82
41467;BME280;27205;53.690;19.948;2022-11-20T02:27:11;99577.84;;;-1.13;76.79
41467;BME280;27205;53.690;19.948;2022-11-20T02:37:30;99574.13;;;-1.04;76.91
41467;BME280;27205;53.690;19.948;2022-11-20T02:42:36;99586.76;;;-1.01;76.98
41467;BME280;27205;53.690;19.948;2022-11-20T02:47:40;99585.56;;;-0.98;76.98
41467;BME280;27205;53.690;19.948;2022-11-20T02:52:43;99578.98;;;-0.96;76.90
41467;BME280;27205;53.690;19.948;2022-11-20T02:57:47;99582.69;;;-0.97;76.71
41467;BME280;27205;53.690;19.948;2022-11-20T03:02:50;99581.85;;;-0.96;77.00
41467;BME280;27205;53.690;19.948;2022-11-20T03:07:54;99579.27;;;-0.94;76.79
41467;BME280;27205;53.690;19.948;2022-11-20T03:12:57;99578.20;;;-0.94;76.97
41467;BME280;27205;53.690;19.948;2022-11-20T03:18:01;99576.65;;;-0.95;76.95
41467;BME280;27205;53.690;19.948;2022-11-20T03:23:04;99575.23;;;-0.93;77.09
41467;BME280;27205;53.690;19.948;2022-11-20T03:28:08;99568.45;;;-0.94;76.97
41467;BME280;27205;53.690;19.948;2022-11-20T03:33:11;99566.20;;;-0.92;77.09
41467;BME280;27205;53.690;19.948;2022-11-20T03:38:15;99560.24;;;-0.92;76.89
41467;BME280;27205;53.690;19.948;2022-11-20T03:43:18;99556.60;;;-0.92;76.87
41467;BME280;27205;53.690;19.948;2022-11-20T03:48:22;99556.64;;;-0.93;77.09
41467;BME280;27205;53.690;19.948;2022-11-20T03:53:25;99550.76;;;-0.92;77.04
41467;BME280;27205;53.690;19.948;2022-11-20T03:58:29;99551.77;;;-0.93;77.05
41467;BME280;27205;53.690;19.948;2022-11-20T04:03:33;99552.95;;;-0.89;77.24
41467;BME280;27205;53.690;19.948;2022-11-20T04:08:37;99556.33;;;-0.86;77.15
41467;BME280;27205;53.690;19.948;2022-11-20T04:13:42;99553.24;;;-0.86;77.09
41467;BME280;27205;53.690;19.948;2022-11-20T04:18:46;99547.98;;;-0.86;77.14
41467;BME280;27205;53.690;19.948;2022-11-20T04:23:51;99540.58;;;-0.86;77.01
41467;BME280;27205;53.690;19.948;2022-11-20T04:28:56;99542.77;;;-0.89;77.24
41467;BME280;27205;53.690;19.948;2022-11-20T04:34:05;99538.81;;;-0.95;77.26
41467;BME280;27205;53.690;19.948;2022-11-20T04:39:12;99537.58;;;-0.95;77.33
41467;BME280;27205;53.690;19.948;2022-11-20T04:44:16;99539.67;;;-0.96;77.34
41467;BME280;27205;53.690;19.948;2022-11-20T04:49:19;99546.38;;;-0.95;77.48
41467;BME280;27205;53.690;19.948;2022-11-20T04:54:23;99545.21;;;-0.94;77.22
41467;BME280;27205;53.690;19.948;2022-11-20T04:59:27;99539.55;;;-0.92;77.15
41467;BME280;27205;53.690;19.948;2022-11-20T05:04:30;99538.06;;;-0.90;77.30
41467;BME280;27205;53.690;19.948;2022-11-20T05:09:34;99539.95;;;-0.87;77.43
41467;BME280;27205;53.690;19.948;2022-11-20T05:14:37;99537.52;;;-0.90;77.23
41467;BME280;27205;53.690;19.948;2022-11-20T05:19:41;99536.55;;;-0.93;77.43
41467;BME280;27205;53.690;19.948;2022-11-20T05:24:44;99529.58;;;-0.92;77.34
41467;BME280;27205;53.690;19.948;2022-11-20T05:29:48;99521.06;;;-0.89;77.48
41467;BME280;27205;53.690;19.948;2022-11-20T05:34:52;99514.88;;;-0.89;77.50
41467;BME280;27205;53.690;19.948;2022-11-20T05:39:56;99512.66;;;-0.90;77.55
41467;BME280;27205;53.690;19.948;2022-11-20T05:45:01;99515.73;;;-0.95;77.60
41467;BME280;27205;53.690;19.948;2022-11-20T05:50:05;99512.67;;;-0.92;77.36
41467;BME280;27205;53.690;19.948;2022-11-20T05:55:11;99514.65;;;-0.96;77.42
41467;BME280;27205;53.690;19.948;2022-11-20T06:00:15;99513.21;;;-0.98;77.34
41467;BME280;27205;53.690;19.948;2022-11-20T06:05:20;99513.98;;;-0.98;77.45
41467;BME280;27205;53.690;19.948;2022-11-20T06:10:23;99506.09;;;-0.96;77.48
41467;BME280;27205;53.690;19.948;2022-11-20T06:15:27;99503.11;;;-0.92;77.40
41467;BME280;27205;53.690;19.948;2022-11-20T06:20:31;99502.30;;;-0.90;77.13
41467;BME280;27205;53.690;19.948;2022-11-20T06:25:42;99497.82;;;-0.89;77.26
41467;BME280;27205;53.690;19.948;2022-11-20T06:30:45;99498.64;;;-0.86;77.62
41467;BME280;27205;53.690;19.948;2022-11-20T06:35:49;99500.52;;;-0.82;77.54
41467;BME280;27205;53.690;19.948;2022-11-20T06:40:58;99503.14;;;-0.83;77.62
41467;BME280;27205;53.690;19.948;2022-11-20T06:46:02;99500.43;;;-0.76;77.68
41467;BME280;27205;53.690;19.948;2022-11-20T06:51:09;99500.05;;;-0.70;77.49
41467;BME280;27205;53.690;19.948;2022-11-20T06:56:13;99496.34;;;-0.63;77.70
41467;BME280;27205;53.690;19.948;2022-11-20T07:01:16;99491.06;;;-0.55;77.97
41467;BME280;27205;53.690;19.948;2022-11-20T07:06:20;99492.25;;;-0.52;77.67
41467;BME280;27205;53.690;19.948;2022-11-20T07:11:24;99494.77;;;-0.50;77.59
41467;BME280;27205;53.690;19.948;2022-11-20T07:16:27;99490.15;;;-0.46;77.80
41467;BME280;27205;53.690;19.948;2022-11-20T07:21:31;99486.36;;;-0.40;77.87
41467;BME280;27205;53.690;19.948;2022-11-20T07:26:34;99492.27;;;-0.26;77.89
41467;BME280;27205;53.690;19.948;2022-11-20T07:31:38;99490.90;;;-0.10;77.96
41467;BME280;27205;53.690;19.948;2022-11-20T07:36:42;99492.10;;;-0.03;77.79
41467;BME280;27205;53.690;19.948;2022-11-20T07:41:45;99481.91;;;0.00;77.70
41467;BME280;27205;53.690;19.948;2022-11-20T07:46:49;99483.25;;;0.08;77.77
41467;BME280;27205;53.690;19.948;2022-11-20T07:51:52;99484.76;;;0.21;77.92
41467;BME280;27205;53.690;19.948;2022-11-20T07:57:06;99483.70;;;0.32;77.57
41467;BME280;27205;53.690;19.948;2022-11-20T08:02:10;99484.68;;;0.48;77.86
41467;BME280;27205;53.690;19.948;2022-11-20T08:07:14;99482.98;;;0.61;77.72
41467;BME280;27205;53.690;19.948;2022-11-20T08:12:19;99483.96;;;0.75;77.73
41467;BME280;27205;53.690;19.948;2022-11-20T08:17:42;99484.44;;;0.91;77.78
41467;BME280;27205;53.690;19.948;2022-11-20T08:23:07;99486.45;;;1.11;77.76
41467;BME280;27205;53.690;19.948;2022-11-20T08:28:10;99483.54;;;1.28;77.47
41467;BME280;27205;53.690;19.948;2022-11-20T08:33:23;99479.42;;;1.50;77.74
41467;BME280;27205;53.690;19.948;2022-11-20T08:38:26;99475.48;;;1.64;77.51
41467;BME280;27205;53.690;19.948;2022-11-20T08:43:29;99465.89;;;1.81;77.73
41467;BME280;27205;53.690;19.948;2022-11-20T08:48:33;99459.02;;;1.89;77.59
41467;BME280;27205;53.690;19.948;2022-11-20T08:53:37;99460.89;;;1.94;77.68
41467;BME280;27205;53.690;19.948;2022-11-20T08:58:40;99458.19;;;2.04;77.45
41467;BME280;27205;53.690;19.948;2022-11-20T09:04:04;99456.02;;;2.17;77.16
41467;BME280;27205;53.690;19.948;2022-11-20T09:09:08;99456.33;;;2.30;77.23
41467;BME280;27205;53.690;19.948;2022-11-20T09:14:11;99454.64;;;2.46;77.36
41467;BME280;27205;53.690;19.948;2022-11-20T09:19:15;99446.27;;;2.61;77.20
41467;BME280;27205;53.690;19.948;2022-11-20T09:24:38;99439.27;;;2.95;77.11
41467;BME280;27205;53.690;19.948;2022-11-20T09:29:42;99441.75;;;3.14;77.06
41467;BME280;27205;53.690;19.948;2022-11-20T09:34:45;99445.36;;;3.32;76.84
41467;BME280;27205;53.690;19.948;2022-11-20T09:39:49;99446.73;;;3.51;76.48
41467;BME280;27205;53.690;19.948;2022-11-20T09:45:22;99439.33;;;3.86;76.06
41467;BME280;27205;53.690;19.948;2022-11-20T09:50:49;99435.02;;;3.97;75.85
41467;BME280;27205;53.690;19.948;2022-11-20T09:55:55;99439.01;;;3.92;75.68
41467;BME280;27205;53.690;19.948;2022-11-20T10:01:09;99439.75;;;3.83;75.87
41467;BME280;27205;53.690;19.948;2022-11-20T10:06:17;99433.77;;;3.92;75.81
41467;BME280;27205;53.690;19.948;2022-11-20T10:12:00;99428.90;;;4.23;75.87
41467;BME280;27205;53.690;19.948;2022-11-20T10:17:21;99432.29;;;4.40;75.35
41467;BME280;27205;53.690;19.948;2022-11-20T10:33:06;99418.45;;;3.78;75.64
41467;BME280;27205;53.690;19.948;2022-11-20T10:38:29;99417.54;;;3.82;75.65
41467;BME280;27205;53.690;19.948;2022-11-20T10:43:34;99417.12;;;4.14;75.39
41467;BME280;27205;53.690;19.948;2022-11-20T10:48:38;99420.19;;;4.15;75.05
41467;BME280;27205;53.690;19.948;2022-11-20T11:04:46;99404.86;;;3.05;74.87
41467;BME280;27205;53.690;19.948;2022-11-20T11:09:53;99401.76;;;2.84;75.06
41467;BME280;27205;53.690;19.948;2022-11-20T11:14:57;99403.21;;;2.65;74.83
41467;BME280;27205;53.690;19.948;2022-11-20T11:25:23;99399.77;;;2.34;74.64
41467;BME280;27205;53.690;19.948;2022-11-20T11:30:28;99400.10;;;2.21;74.59
41467;BME280;27205;53.690;19.948;2022-11-20T11:35:38;99396.00;;;2.11;74.79
41467;BME280;27205;53.690;19.948;2022-11-20T11:40:42;99388.55;;;2.11;74.85
41467;BME280;27205;53.690;19.948;2022-11-20T11:45:52;99391.94;;;2.03;74.70
41467;BME280;27205;53.690;19.948;2022-11-20T11:50:57;99393.27;;;2.00;74.75
41467;BME280;27205;53.690;19.948;2022-11-20T11:56:11;99384.95;;;2.00;74.58
41467;BME280;27205;53.690;19.948;2022-11-20T12:01:28;99370.95;;;2.01;74.57
41467;BME280;27205;53.690;19.948;2022-11-20T12:06:38;99362.36;;;2.00;74.56
41467;BME280;27205;53.690;19.948;2022-11-20T12:11:55;99360.13;;;2.12;74.64
41467;BME280;27205;53.690;19.948;2022-11-20T12:17:02;99356.46;;;2.16;74.51
41467;BME280;27205;53.690;19.948;2022-11-20T12:38:06;99343.23;;;2.46;74.66
41467;BME280;27205;53.690;19.948;2022-11-20T12:43:21;99343.29;;;2.39;74.59
41467;BME280;27205;53.690;19.948;2022-11-20T12:49:08;99333.19;;;2.30;74.51
41467;BME280;27205;53.690;19.948;2022-11-20T13:05:11;99322.08;;;2.27;74.51
41467;BME280;27205;53.690;19.948;2022-11-20T13:10:43;99313.77;;;2.10;74.27
41467;BME280;27205;53.690;19.948;2022-11-20T13:16:08;99304.45;;;2.01;74.22
41467;BME280;27205;53.690;19.948;2022-11-20T13:21:36;99294.99;;;1.87;74.10
41467;BME280;27205;53.690;19.948;2022-11-20T13:26:39;99286.83;;;1.76;74.23
41467;BME280;27205;53.690;19.948;2022-11-20T13:31:46;99278.61;;;1.66;74.02
41467;BME280;27205;53.690;19.948;2022-11-20T13:36:52;99276.42;;;1.61;74.20
41467;BME280;27205;53.690;19.948;2022-11-20T13:42:01;99275.64;;;1.56;74.07
41467;BME280;27205;53.690;19.948;2022-11-20T13:57:59;99265.96;;;1.48;74.40
41467;BME280;27205;53.690;19.948;2022-11-20T14:08:14;99254.73;;;1.32;74.42
41467;BME280;27205;53.690;19.948;2022-11-20T14:13:21;99256.60;;;1.29;74.31
41467;BME280;27205;53.690;19.948;2022-11-20T14:18:26;99250.98;;;1.27;74.45
41467;BME280;27205;53.690;19.948;2022-11-20T14:23:30;99250.09;;;1.19;74.40
41467;BME280;27205;53.690;19.948;2022-11-20T14:28:34;99246.27;;;1.20;74.41
41467;BME280;27205;53.690;19.948;2022-11-20T14:33:37;99240.23;;;1.17;74.54
41467;BME280;27205;53.690;19.948;2022-11-20T14:38:41;99235.14;;;1.13;74.79
41467;BME280;27205;53.690;19.948;2022-11-20T14:43:52;99233.25;;;1.07;75.06
41467;BME280;27205;53.690;19.948;2022-11-20T14:49:01;99225.34;;;1.08;74.73
41467;BME280;27205;53.690;19.948;2022-11-20T14:54:19;99224.84;;;1.06;75.08
41467;BME280;27205;53.690;19.948;2022-11-20T14:59:29;99222.97;;;1.03;74.92
41467;BME280;27205;53.690;19.948;2022-11-20T15:04:32;99220.65;;;0.97;75.14
41467;BME280;27205;53.690;19.948;2022-11-20T15:09:36;99219.44;;;0.92;75.19
41467;BME280;27205;53.690;19.948;2022-11-20T15:14:39;99216.80;;;0.92;75.45
41467;BME280;27205;53.690;19.948;2022-11-20T15:19:43;99207.49;;;0.93;75.43
41467;BME280;27205;53.690;19.948;2022-11-20T15:24:46;99203.33;;;0.93;75.71
41467;BME280;27205;53.690;19.948;2022-11-20T15:29:50;99194.60;;;0.94;75.53
41467;BME280;27205;53.690;19.948;2022-11-20T15:34:53;99195.09;;;0.94;75.71
41467;BME280;27205;53.690;19.948;2022-11-20T15:39:57;99192.49;;;0.89;75.77
41467;BME280;27205;53.690;19.948;2022-11-20T15:45:01;99196.02;;;0.87;75.85
41467;BME280;27205;53.690;19.948;2022-11-20T15:50:09;99190.41;;;0.89;75.92
41467;BME280;27205;53.690;19.948;2022-11-20T15:55:19;99186.17;;;0.91;76.11
41467;BME280;27205;53.690;19.948;2022-11-20T16:00:22;99176.75;;;0.93;76.13
41467;BME280;27205;53.690;19.948;2022-11-20T16:05:29;99172.00;;;0.93;75.98
41467;BME280;27205;53.690;19.948;2022-11-20T16:10:33;99167.61;;;0.95;76.28
41467;BME280;27205;53.690;19.948;2022-11-20T16:15:36;99172.30;;;0.94;76.43
41467;BME280;27205;53.690;19.948;2022-11-20T16:20:51;99170.48;;;0.96;76.47
41467;BME280;27205;53.690;19.948;2022-11-20T16:25:55;99168.27;;;0.97;76.39
41467;BME280;27205;53.690;19.948;2022-11-20T16:31:08;99162.81;;;0.99;76.54
41467;BME280;27205;53.690;19.948;2022-11-20T16:36:14;99159.02;;;0.99;76.54
41467;BME280;27205;53.690;19.948;2022-11-20T16:41:18;99160.45;;;1.00;76.75
41467;BME280;27205;53.690;19.948;2022-11-20T16:46:22;99162.11;;;1.02;76.57
41467;BME280;27205;53.690;19.948;2022-11-20T16:51:26;99160.87;;;1.02;76.73
41467;BME280;27205;53.690;19.948;2022-11-20T16:56:31;99162.42;;;1.01;76.86
41467;BME280;27205;53.690;19.948;2022-11-20T17:01:34;99157.06;;;1.02;76.78
41467;BME280;27205;53.690;19.948;2022-11-20T17:06:42;99157.92;;;1.02;76.96
41467;BME280;27205;53.690;19.948;2022-11-20T17:11:50;99160.55;;;1.02;76.84
41467;BME280;27205;53.690;19.948;2022-11-20T17:16:53;99162.02;;;1.02;77.09
41467;BME280;27205;53.690;19.948;2022-11-20T17:21:57;99160.77;;;1.00;77.19
41467;BME280;27205;53.690;19.948;2022-11-20T17:27:00;99157.59;;;0.97;77.08
41467;BME280;27205;53.690;19.948;2022-11-20T17:32:04;99156.20;;;0.94;77.05
41467;BME280;27205;53.690;19.948;2022-11-20T17:37:08;99159.89;;;0.88;77.01
41467;BME280;27205;53.690;19.948;2022-11-20T17:42:11;99156.73;;;0.82;77.33
41467;BME280;27205;53.690;19.948;2022-11-20T17:47:34;99153.63;;;0.78;77.33
41467;BME280;27205;53.690;19.948;2022-11-20T17:52:38;99152.95;;;0.74;77.35
41467;BME280;27205;53.690;19.948;2022-11-20T17:57:41;99151.98;;;0.72;77.47
41467;BME280;27205;53.690;19.948;2022-11-20T18:02:59;99148.98;;;0.72;77.59
41467;BME280;27205;53.690;19.948;2022-11-20T18:08:02;99146.80;;;0.69;77.47
41467;BME280;27205;53.690;19.948;2022-11-20T18:13:06;99141.69;;;0.66;77.66
41467;BME280;27205;53.690;19.948;2022-11-20T18:18:09;99138.04;;;0.60;77.83
41467;BME280;27205;53.690;19.948;2022-11-20T18:23:13;99136.66;;;0.56;77.60
41467;BME280;27205;53.690;19.948;2022-11-20T18:28:16;99134.38;;;0.51;77.58
41467;BME280;27205;53.690;19.948;2022-11-20T18:33:21;99134.66;;;0.49;77.94
41467;BME280;27205;53.690;19.948;2022-11-20T18:38:30;99133.50;;;0.49;77.89
41467;BME280;27205;53.690;19.948;2022-11-20T18:43:33;99131.91;;;0.50;77.97
41467;BME280;27205;53.690;19.948;2022-11-20T18:48:56;99130.46;;;0.53;78.05
41467;BME280;27205;53.690;19.948;2022-11-20T18:53:59;99128.07;;;0.53;78.11
41467;BME280;27205;53.690;19.948;2022-11-20T18:59:04;99123.64;;;0.47;78.03
41467;BME280;27205;53.690;19.948;2022-11-20T19:04:13;99120.79;;;0.43;78.18
41467;BME280;27205;53.690;19.948;2022-11-20T19:09:16;99118.05;;;0.41;78.39
41467;BME280;27205;53.690;19.948;2022-11-20T19:14:20;99121.12;;;0.35;78.13
41467;BME280;27205;53.690;19.948;2022-11-20T19:19:24;99119.84;;;0.34;78.36
41467;BME280;27205;53.690;19.948;2022-11-20T19:24:28;99116.87;;;0.31;78.18
41467;BME280;27205;53.690;19.948;2022-11-20T19:29:32;99115.02;;;0.32;78.25
41467;BME280;27205;53.690;19.948;2022-11-20T19:34:36;99112.11;;;0.31;78.43
41467;BME280;27205;53.690;19.948;2022-11-20T19:39:39;99111.73;;;0.30;78.51
41467;BME280;27205;53.690;19.948;2022-11-20T19:44:43;99110.02;;;0.27;78.32
41467;BME280;27205;53.690;19.948;2022-11-20T19:49:46;99103.31;;;0.26;78.54
41467;BME280;27205;53.690;19.948;2022-11-20T19:54:49;99112.15;;;0.24;78.42
41467;BME280;27205;53.690;19.948;2022-11-20T19:59:53;99108.21;;;0.21;78.49
41467;BME280;27205;53.690;19.948;2022-11-20T20:04:57;99106.34;;;0.18;78.75
41467;BME280;27205;53.690;19.948;2022-11-20T20:10:01;99111.05;;;0.15;78.64
41467;BME280;27205;53.690;19.948;2022-11-20T20:15:05;99110.85;;;0.14;78.83
41467;BME280;27205;53.690;19.948;2022-11-20T20:20:09;99114.23;;;0.14;78.78
41467;BME280;27205;53.690;19.948;2022-11-20T20:25:13;99110.15;;;0.17;78.95
41467;BME280;27205;53.690;19.948;2022-11-20T20:30:16;99110.36;;;0.18;78.72
41467;BME280;27205;53.690;19.948;2022-11-20T20:35:20;99110.23;;;0.17;78.90
41467;BME280;27205;53.690;19.948;2022-11-20T20:40:24;99116.24;;;0.18;78.90
41467;BME280;27205;53.690;19.948;2022-11-20T20:45:27;99117.77;;;0.19;78.69
41467;BME280;27205;53.690;19.948;2022-11-20T20:50:31;99120.48;;;0.22;79.14
41467;BME280;27205;53.690;19.948;2022-11-20T20:55:34;99122.80;;;0.23;79.03
41467;BME280;27205;53.690;19.948;2022-11-20T21:00:38;99120.15;;;0.27;78.96
41467;BME280;27205;53.690;19.948;2022-11-20T21:05:41;99116.10;;;0.29;79.10
41467;BME280;27205;53.690;19.948;2022-11-20T21:10:45;99120.83;;;0.28;79.13
41467;BME280;27205;53.690;19.948;2022-11-20T21:15:50;99129.89;;;0.28;79.30
41467;BME280;27205;53.690;19.948;2022-11-20T21:20:54;99126.25;;;0.28;79.32
41467;BME280;27205;53.690;19.948;2022-11-20T21:26:16;99123.71;;;0.27;79.39
41467;BME280;27205;53.690;19.948;2022-11-20T21:31:22;99119.46;;;0.30;79.50
41467;BME280;27205;53.690;19.948;2022-11-20T21:36:30;99109.58;;;0.32;79.43
41467;BME280;27205;53.690;19.948;2022-11-20T21:41:33;99106.02;;;0.32;79.34
41467;BME280;27205;53.690;19.948;2022-11-20T21:46:39;99095.85;;;0.30;79.43
41467;BME280;27205;53.690;19.948;2022-11-20T21:51:43;99095.02;;;0.33;79.46
41467;BME280;27205;53.690;19.948;2022-11-20T21:56:47;99093.02;;;0.33;79.43
41467;BME280;27205;53.690;19.948;2022-11-20T22:01:51;99092.91;;;0.27;79.36
41467;BME280;27205;53.690;19.948;2022-11-20T22:06:54;99091.77;;;0.26;79.65
41467;BME280;27205;53.690;19.948;2022-11-20T22:11:58;99089.85;;;0.22;79.33
41467;BME280;27205;53.690;19.948;2022-11-20T22:17:01;99090.13;;;0.17;79.30
41467;BME280;27205;53.690;19.948;2022-11-20T22:22:05;99089.44;;;0.09;79.38
41467;BME280;27205;53.690;19.948;2022-11-20T22:27:09;99091.99;;;-0.01;79.08
41467;BME280;27205;53.690;19.948;2022-11-20T22:32:12;99087.81;;;-0.11;79.41
41467;BME280;27205;53.690;19.948;2022-11-20T22:37:16;99084.40;;;-0.18;79.33
41467;BME280;27205;53.690;19.948;2022-11-20T22:42:19;99080.17;;;-0.23;79.31
41467;BME280;27205;53.690;19.948;2022-11-20T22:47:23;99074.64;;;-0.32;79.42
41467;BME280;27205;53.690;19.948;2022-11-20T22:52:26;99062.30;;;-0.44;79.02
41467;BME280;27205;53.690;19.948;2022-11-20T22:57:30;99061.42;;;-0.61;79.08
41467;BME280;27205;53.690;19.948;2022-11-20T23:02:33;99057.92;;;-0.76;78.88
41467;BME280;27205;53.690;19.948;2022-11-20T23:07:37;99056.94;;;-0.93;79.00
41467;BME280;27205;53.690;19.948;2022-11-20T23:12:43;99055.92;;;-1.10;79.15
41467;BME280;27205;53.690;19.948;2022-11-20T23:17:46;99057.51;;;-1.20;79.03
41467;BME280;27205;53.690;19.948;2022-11-20T23:22:50;99058.73;;;-1.28;79.11
41467;BME280;27205;53.690;19.948;2022-11-20T23:27:53;99065.09;;;-1.30;79.05
41467;BME280;27205;53.690;19.948;2022-11-20T23:32:57;99059.58;;;-1.29;79.18
41467;BME280;27205;53.690;19.948;2022-11-20T23:38:00;99063.70;;;-1.25;78.90
41467;BME280;27205;53.690;19.948;2022-11-20T23:43:04;99061.13;;;-1.24;79.15
41467;BME280;27205;53.690;19.948;2022-11-20T23:48:21;99063.13;;;-1.19;79.25
41467;BME280;27205;53.690;19.948;2022-11-20T23:53:26;99054.02;;;-1.14;79.26
41467;BME280;27205;53.690;19.948;2022-11-20T23:58:33;99054.80;;;-1.07;79.50
